sensor_id;sensor_type;location;lat;lon;timestamp;P1;durP1;ratioP1;P2;durP2;ratioP2
45650;SDS011;31365;48.858;8.530;2023-06-04T00:00:22;6.10;;;4.87;;
45650;SDS011;31365;48.858;8.530;2023-06-04T00:02:50;7.72;;;4.53;;
45650;SDS011;31365;48.858;8.530;2023-06-04T00:05:20;4.83;;;4.30;;
45650;SDS011;31365;48.858;8.530;2023-06-04T00:07:53;4.57;;;4.03;;
45650;SDS011;31365;48.858;8.530;2023-06-04T00:10:22;7.40;;;4.57;;
45650;SDS011;31365;48.858;8.530;2023-06-04T00:12:50;4.43;;;4.03;;
45650;SDS011;31365;48.858;8.530;2023-06-04T00:15:19;6.57;;;4.47;;
45650;SDS011;31365;48.858;8.530;2023-06-04T00:17:48;6.00;;;4.23;;
45650;SDS011;31365;48.858;8.530;2023-06-04T00:20:17;6.60;;;4.23;;
45650;SDS011;31365;48.858;8.530;2023-06-04T00:22:45;4.77;;;4.37;;
45650;SDS011;31365;48.858;8.530;2023-06-04T00:25:15;7.40;;;4.03;;
45650;SDS011;31365;48.858;8.530;2023-06-04T00:27:44;4.37;;;3.83;;
45650;SDS011;31365;48.858;8.530;2023-06-04T00:30:14;5.37;;;3.70;;
45650;SDS011;31365;48.858;8.530;2023-06-04T00:32:43;4.70;;;4.20;;
45650;SDS011;31365;48.858;8.530;2023-06-04T00:35:13;6.77;;;4.00;;
45650;SDS011;31365;48.858;8.530;2023-06-04T00:37:41;4.40;;;3.63;;
45650;SDS011;31365;48.858;8.530;2023-06-04T00:40:11;4.60;;;4.03;;
45650;SDS011;31365;48.858;8.530;2023-06-04T00:42:41;4.50;;;4.00;;
45650;SDS011;31365;48.858;8.530;2023-06-04T00:45:11;4.77;;;4.20;;
45650;SDS011;31365;48.858;8.530;2023-06-04T00:47:45;5.07;;;4.05;;
45650;SDS011;31365;48.858;8.530;2023-06-04T00:50:13;4.60;;;4.20;;
45650;SDS011;31365;48.858;8.530;2023-06-04T00:52:42;4.97;;;3.97;;
45650;SDS011;31365;48.858;8.530;2023-06-04T00:55:11;7.87;;;4.07;;
45650;SDS011;31365;48.858;8.530;2023-06-04T00:57:41;4.10;;;3.70;;
45650;SDS011;31365;48.858;8.530;2023-06-04T01:00:10;5.23;;;4.23;;
45650;SDS011;31365;48.858;8.530;2023-06-04T01:02:41;4.60;;;3.50;;
45650;SDS011;31365;48.858;8.530;2023-06-04T01:05:14;4.40;;;3.83;;
45650;SDS011;31365;48.858;8.530;2023-06-04T01:08:11;4.47;;;4.07;;
45650;SDS011;31365;48.858;8.530;2023-06-04T01:10:49;4.40;;;4.00;;
45650;SDS011;31365;48.858;8.530;2023-06-04T01:13:20;5.33;;;4.20;;
45650;SDS011;31365;48.858;8.530;2023-06-04T01:15:49;9.63;;;4.50;;
45650;SDS011;31365;48.858;8.530;2023-06-04T01:18:19;4.67;;;4.00;;
45650;SDS011;31365;48.858;8.530;2023-06-04T01:20:56;5.10;;;4.60;;
45650;SDS011;31365;48.858;8.530;2023-06-04T01:23:31;4.97;;;4.47;;
45650;SDS011;31365;48.858;8.530;2023-06-04T01:26:09;6.50;;;4.17;;
45650;SDS011;31365;48.858;8.530;2023-06-04T01:28:40;5.40;;;4.30;;
45650;SDS011;31365;48.858;8.530;2023-06-04T01:31:11;4.73;;;4.23;;
45650;SDS011;31365;48.858;8.530;2023-06-04T01:33:41;4.80;;;4.40;;
45650;SDS011;31365;48.858;8.530;2023-06-04T01:36:10;4.90;;;4.30;;
45650;SDS011;31365;48.858;8.530;2023-06-04T01:38:38;5.43;;;4.90;;
45650;SDS011;31365;48.858;8.530;2023-06-04T01:41:08;4.57;;;4.17;;
45650;SDS011;31365;48.858;8.530;2023-06-04T01:43:37;5.10;;;4.43;;
45650;SDS011;31365;48.858;8.530;2023-06-04T01:46:07;5.27;;;4.20;;
45650;SDS011;31365;48.858;8.530;2023-06-04T01:48:36;6.13;;;3.90;;
45650;SDS011;31365;48.858;8.530;2023-06-04T01:51:06;4.70;;;3.90;;
45650;SDS011;31365;48.858;8.530;2023-06-04T01:53:35;6.97;;;4.93;;
45650;SDS011;31365;48.858;8.530;2023-06-04T01:56:03;4.80;;;4.30;;
45650;SDS011;31365;48.858;8.530;2023-06-04T01:58:34;4.90;;;3.77;;
45650;SDS011;31365;48.858;8.530;2023-06-04T02:01:03;5.40;;;4.60;;
45650;SDS011;31365;48.858;8.530;2023-06-04T02:03:33;6.53;;;4.10;;
45650;SDS011;31365;48.858;8.530;2023-06-04T02:06:04;5.93;;;4.23;;
45650;SDS011;31365;48.858;8.530;2023-06-04T02:08:34;6.57;;;4.13;;
45650;SDS011;31365;48.858;8.530;2023-06-04T02:11:03;7.17;;;4.40;;
45650;SDS011;31365;48.858;8.530;2023-06-04T02:13:32;4.37;;;3.97;;
45650;SDS011;31365;48.858;8.530;2023-06-04T02:16:02;5.73;;;4.33;;
45650;SDS011;31365;48.858;8.530;2023-06-04T02:18:31;6.23;;;4.70;;
45650;SDS011;31365;48.858;8.530;2023-06-04T02:21:01;4.53;;;4.07;;
45650;SDS011;31365;48.858;8.530;2023-06-04T02:23:29;5.27;;;3.87;;
45650;SDS011;31365;48.858;8.530;2023-06-04T02:25:58;4.87;;;4.27;;
45650;SDS011;31365;48.858;8.530;2023-06-04T02:28:26;5.70;;;4.80;;
45650;SDS011;31365;48.858;8.530;2023-06-04T02:30:56;4.90;;;4.20;;
45650;SDS011;31365;48.858;8.530;2023-06-04T02:33:24;5.83;;;4.70;;
45650;SDS011;31365;48.858;8.530;2023-06-04T02:35:52;4.80;;;4.30;;
45650;SDS011;31365;48.858;8.530;2023-06-04T02:38:24;6.83;;;4.70;;
45650;SDS011;31365;48.858;8.530;2023-06-04T02:40:53;5.37;;;4.07;;
45650;SDS011;31365;48.858;8.530;2023-06-04T02:43:21;4.83;;;4.30;;
45650;SDS011;31365;48.858;8.530;2023-06-04T02:45:50;5.03;;;3.97;;
45650;SDS011;31365;48.858;8.530;2023-06-04T02:48:18;5.43;;;4.83;;
45650;SDS011;31365;48.858;8.530;2023-06-04T02:50:46;4.83;;;4.40;;
45650;SDS011;31365;48.858;8.530;2023-06-04T02:53:15;4.77;;;4.27;;
45650;SDS011;31365;48.858;8.530;2023-06-04T02:55:46;7.83;;;4.57;;
45650;SDS011;31365;48.858;8.530;2023-06-04T02:58:15;7.57;;;4.50;;
45650;SDS011;31365;48.858;8.530;2023-06-04T03:00:44;5.13;;;4.33;;
45650;SDS011;31365;48.858;8.530;2023-06-04T03:03:13;4.60;;;4.20;;
45650;SDS011;31365;48.858;8.530;2023-06-04T03:05:41;5.17;;;4.10;;
45650;SDS011;31365;48.858;8.530;2023-06-04T03:08:10;6.37;;;4.80;;
45650;SDS011;31365;48.858;8.530;2023-06-04T03:10:39;4.80;;;4.33;;
45650;SDS011;31365;48.858;8.530;2023-06-04T03:13:09;5.00;;;4.47;;
45650;SDS011;31365;48.858;8.530;2023-06-04T03:15:38;5.07;;;4.40;;
45650;SDS011;31365;48.858;8.530;2023-06-04T03:18:06;6.47;;;4.47;;
45650;SDS011;31365;48.858;8.530;2023-06-04T03:20:35;5.40;;;3.87;;
45650;SDS011;31365;48.858;8.530;2023-06-04T03:23:05;4.83;;;4.33;;
45650;SDS011;31365;48.858;8.530;2023-06-04T03:25:34;4.80;;;4.30;;
45650;SDS011;31365;48.858;8.530;2023-06-04T03:28:03;4.97;;;4.20;;
45650;SDS011;31365;48.858;8.530;2023-06-04T03:30:33;6.63;;;4.13;;
45650;SDS011;31365;48.858;8.530;2023-06-04T03:33:04;6.03;;;4.37;;
45650;SDS011;31365;48.858;8.530;2023-06-04T03:35:33;4.33;;;3.80;;
45650;SDS011;31365;48.858;8.530;2023-06-04T03:38:02;5.57;;;3.70;;
45650;SDS011;31365;48.858;8.530;2023-06-04T03:40:32;8.43;;;4.47;;
45650;SDS011;31365;48.858;8.530;2023-06-04T03:43:03;5.03;;;4.20;;
45650;SDS011;31365;48.858;8.530;2023-06-04T03:45:33;4.47;;;3.93;;
45650;SDS011;31365;48.858;8.530;2023-06-04T03:48:02;4.67;;;4.20;;
45650;SDS011;31365;48.858;8.530;2023-06-04T03:50:33;5.37;;;4.70;;
45650;SDS011;31365;48.858;8.530;2023-06-04T03:53:02;5.23;;;4.57;;
45650;SDS011;31365;48.858;8.530;2023-06-04T03:55:32;6.10;;;4.17;;
45650;SDS011;31365;48.858;8.530;2023-06-04T03:58:03;6.57;;;4.63;;
45650;SDS011;31365;48.858;8.530;2023-06-04T04:00:34;4.83;;;4.10;;
45650;SDS011;31365;48.858;8.530;2023-06-04T04:03:03;6.40;;;4.20;;
45650;SDS011;31365;48.858;8.530;2023-06-04T04:05:36;4.23;;;3.83;;
45650;SDS011;31365;48.858;8.530;2023-06-04T04:08:05;5.80;;;4.53;;
45650;SDS011;31365;48.858;8.530;2023-06-04T04:10:36;5.47;;;4.27;;
45650;SDS011;31365;48.858;8.530;2023-06-04T04:13:05;4.67;;;3.90;;
45650;SDS011;31365;48.858;8.530;2023-06-04T04:15:38;4.90;;;4.03;;
45650;SDS011;31365;48.858;8.530;2023-06-04T04:18:07;4.40;;;4.00;;
45650;SDS011;31365;48.858;8.530;2023-06-04T04:20:37;5.53;;;4.00;;
45650;SDS011;31365;48.858;8.530;2023-06-04T04:23:09;5.40;;;4.07;;
45650;SDS011;31365;48.858;8.530;2023-06-04T04:25:40;4.30;;;3.93;;
45650;SDS011;31365;48.858;8.530;2023-06-04T04:28:11;4.03;;;3.70;;
45650;SDS011;31365;48.858;8.530;2023-06-04T04:30:41;4.80;;;3.37;;
45650;SDS011;31365;48.858;8.530;2023-06-04T04:33:11;7.93;;;3.90;;
45650;SDS011;31365;48.858;8.530;2023-06-04T04:35:45;6.90;;;4.17;;
45650;SDS011;31365;48.858;8.530;2023-06-04T04:38:18;5.37;;;4.17;;
45650;SDS011;31365;48.858;8.530;2023-06-04T04:40:56;3.93;;;3.47;;
45650;SDS011;31365;48.858;8.530;2023-06-04T04:43:28;4.67;;;4.27;;
45650;SDS011;31365;48.858;8.530;2023-06-04T04:46:05;3.93;;;3.57;;
45650;SDS011;31365;48.858;8.530;2023-06-04T04:48:34;4.70;;;4.20;;
45650;SDS011;31365;48.858;8.530;2023-06-04T04:51:05;4.53;;;3.80;;
45650;SDS011;31365;48.858;8.530;2023-06-04T04:53:35;4.20;;;3.80;;
45650;SDS011;31365;48.858;8.530;2023-06-04T04:56:03;5.10;;;4.00;;
45650;SDS011;31365;48.858;8.530;2023-06-04T04:58:36;4.60;;;4.20;;
45650;SDS011;31365;48.858;8.530;2023-06-04T05:01:07;6.73;;;4.07;;
45650;SDS011;31365;48.858;8.530;2023-06-04T05:03:37;8.73;;;4.37;;
45650;SDS011;31365;48.858;8.530;2023-06-04T05:06:07;6.13;;;4.43;;
45650;SDS011;31365;48.858;8.530;2023-06-04T05:08:36;5.63;;;4.33;;
45650;SDS011;31365;48.858;8.530;2023-06-04T05:11:05;9.83;;;4.37;;
45650;SDS011;31365;48.858;8.530;2023-06-04T05:13:35;4.47;;;3.77;;
45650;SDS011;31365;48.858;8.530;2023-06-04T05:16:06;4.70;;;4.30;;
45650;SDS011;31365;48.858;8.530;2023-06-04T05:18:39;4.27;;;3.87;;
45650;SDS011;31365;48.858;8.530;2023-06-04T05:21:15;5.23;;;4.03;;
45650;SDS011;31365;48.858;8.530;2023-06-04T05:23:50;5.40;;;4.90;;
45650;SDS011;31365;48.858;8.530;2023-06-04T05:26:21;4.80;;;4.40;;
45650;SDS011;31365;48.858;8.530;2023-06-04T05:28:55;5.53;;;4.60;;
45650;SDS011;31365;48.858;8.530;2023-06-04T05:31:30;5.33;;;4.83;;
45650;SDS011;31365;48.858;8.530;2023-06-04T05:34:02;6.80;;;4.70;;
45650;SDS011;31365;48.858;8.530;2023-06-04T05:36:34;6.33;;;4.60;;
45650;SDS011;31365;48.858;8.530;2023-06-04T05:39:05;5.23;;;4.43;;
45650;SDS011;31365;48.858;8.530;2023-06-04T05:41:42;4.73;;;4.23;;
45650;SDS011;31365;48.858;8.530;2023-06-04T05:44:12;5.60;;;4.23;;
45650;SDS011;31365;48.858;8.530;2023-06-04T05:46:43;4.17;;;3.83;;
45650;SDS011;31365;48.858;8.530;2023-06-04T05:49:11;4.67;;;4.20;;
45650;SDS011;31365;48.858;8.530;2023-06-04T05:51:40;6.17;;;4.03;;
45650;SDS011;31365;48.858;8.530;2023-06-04T05:54:09;5.73;;;3.83;;
45650;SDS011;31365;48.858;8.530;2023-06-04T05:56:41;4.90;;;4.10;;
45650;SDS011;31365;48.858;8.530;2023-06-04T05:59:10;6.77;;;4.40;;
45650;SDS011;31365;48.858;8.530;2023-06-04T06:01:39;4.50;;;3.93;;
45650;SDS011;31365;48.858;8.530;2023-06-04T06:04:09;4.83;;;3.53;;
45650;SDS011;31365;48.858;8.530;2023-06-04T06:06:39;5.60;;;4.10;;
45650;SDS011;31365;48.858;8.530;2023-06-04T06:09:10;8.57;;;3.77;;
45650;SDS011;31365;48.858;8.530;2023-06-04T06:11:39;6.53;;;4.00;;
45650;SDS011;31365;48.858;8.530;2023-06-04T06:14:08;4.53;;;3.50;;
45650;SDS011;31365;48.858;8.530;2023-06-04T06:16:37;5.30;;;4.03;;
45650;SDS011;31365;48.858;8.530;2023-06-04T06:19:05;4.80;;;4.30;;
45650;SDS011;31365;48.858;8.530;2023-06-04T06:21:35;4.10;;;3.67;;
45650;SDS011;31365;48.858;8.530;2023-06-04T06:24:04;3.47;;;3.17;;
45650;SDS011;31365;48.858;8.530;2023-06-04T06:26:34;3.38;;;3.08;;
45650;SDS011;31365;48.858;8.530;2023-06-04T06:29:04;4.40;;;3.17;;
45650;SDS011;31365;48.858;8.530;2023-06-04T06:31:33;8.13;;;3.60;;
45650;SDS011;31365;48.858;8.530;2023-06-04T06:34:02;4.32;;;3.65;;
45650;SDS011;31365;48.858;8.530;2023-06-04T06:36:30;3.95;;;3.28;;
45650;SDS011;31365;48.858;8.530;2023-06-04T06:39:01;3.13;;;2.78;;
45650;SDS011;31365;48.858;8.530;2023-06-04T06:41:29;4.60;;;3.22;;
45650;SDS011;31365;48.858;8.530;2023-06-04T06:43:58;2.50;;;2.30;;
45650;SDS011;31365;48.858;8.530;2023-06-04T06:46:27;4.00;;;2.42;;
45650;SDS011;31365;48.858;8.530;2023-06-04T06:48:57;3.50;;;2.45;;
45650;SDS011;31365;48.858;8.530;2023-06-04T06:51:25;7.57;;;2.72;;
45650;SDS011;31365;48.858;8.530;2023-06-04T06:53:54;3.65;;;2.60;;
45650;SDS011;31365;48.858;8.530;2023-06-04T06:56:23;4.85;;;2.40;;
45650;SDS011;31365;48.858;8.530;2023-06-04T06:58:52;2.42;;;2.00;;
45650;SDS011;31365;48.858;8.530;2023-06-04T07:01:21;3.25;;;2.33;;
45650;SDS011;31365;48.858;8.530;2023-06-04T07:03:50;2.13;;;1.92;;
45650;SDS011;31365;48.858;8.530;2023-06-04T07:06:18;2.10;;;1.90;;
45650;SDS011;31365;48.858;8.530;2023-06-04T07:08:47;3.83;;;1.98;;
45650;SDS011;31365;48.858;8.530;2023-06-04T07:11:15;8.68;;;1.90;;
45650;SDS011;31365;48.858;8.530;2023-06-04T07:13:46;3.67;;;2.42;;
45650;SDS011;31365;48.858;8.530;2023-06-04T07:16:14;2.20;;;2.00;;
45650;SDS011;31365;48.858;8.530;2023-06-04T07:18:44;2.15;;;1.95;;
45650;SDS011;31365;48.858;8.530;2023-06-04T07:21:16;2.50;;;1.83;;
45650;SDS011;31365;48.858;8.530;2023-06-04T07:23:45;2.13;;;1.95;;
45650;SDS011;31365;48.858;8.530;2023-06-04T07:26:16;4.47;;;2.25;;
45650;SDS011;31365;48.858;8.530;2023-06-04T07:28:47;2.17;;;1.85;;
45650;SDS011;31365;48.858;8.530;2023-06-04T07:31:16;3.13;;;2.25;;
45650;SDS011;31365;48.858;8.530;2023-06-04T07:33:45;3.67;;;2.40;;
45650;SDS011;31365;48.858;8.530;2023-06-04T07:36:13;3.30;;;2.33;;
45650;SDS011;31365;48.858;8.530;2023-06-04T07:38:44;5.60;;;2.13;;
45650;SDS011;31365;48.858;8.530;2023-06-04T07:41:12;3.92;;;2.20;;
45650;SDS011;31365;48.858;8.530;2023-06-04T07:43:42;3.30;;;2.47;;
45650;SDS011;31365;48.858;8.530;2023-06-04T07:46:13;2.20;;;2.00;;
45650;SDS011;31365;48.858;8.530;2023-06-04T07:48:45;3.03;;;2.00;;
45650;SDS011;31365;48.858;8.530;2023-06-04T07:51:14;2.83;;;2.20;;
45650;SDS011;31365;48.858;8.530;2023-06-04T07:53:42;4.43;;;1.90;;
45650;SDS011;31365;48.858;8.530;2023-06-04T07:56:11;3.15;;;1.77;;
45650;SDS011;31365;48.858;8.530;2023-06-04T07:58:40;3.00;;;1.98;;
45650;SDS011;31365;48.858;8.530;2023-06-04T08:01:09;2.13;;;1.92;;
45650;SDS011;31365;48.858;8.530;2023-06-04T08:03:39;2.60;;;1.83;;
45650;SDS011;31365;48.858;8.530;2023-06-04T08:06:08;2.42;;;1.73;;
45650;SDS011;31365;48.858;8.530;2023-06-04T08:08:37;2.28;;;2.08;;
45650;SDS011;31365;48.858;8.530;2023-06-04T08:11:06;3.90;;;2.10;;
45650;SDS011;31365;48.858;8.530;2023-06-04T08:13:35;2.17;;;1.98;;
45650;SDS011;31365;48.858;8.530;2023-06-04T08:16:03;3.45;;;2.30;;
45650;SDS011;31365;48.858;8.530;2023-06-04T08:18:32;5.55;;;2.15;;
45650;SDS011;31365;48.858;8.530;2023-06-04T08:21:03;2.58;;;2.08;;
45650;SDS011;31365;48.858;8.530;2023-06-04T08:23:32;4.18;;;2.08;;
45650;SDS011;31365;48.858;8.530;2023-06-04T08:26:01;3.60;;;1.90;;
45650;SDS011;31365;48.858;8.530;2023-06-04T08:28:33;3.67;;;1.63;;
45650;SDS011;31365;48.858;8.530;2023-06-04T08:31:01;3.65;;;1.92;;
45650;SDS011;31365;48.858;8.530;2023-06-04T08:33:30;2.95;;;2.15;;
45650;SDS011;31365;48.858;8.530;2023-06-04T08:35:59;2.60;;;1.95;;
45650;SDS011;31365;48.858;8.530;2023-06-04T08:38:29;2.53;;;2.30;;
45650;SDS011;31365;48.858;8.530;2023-06-04T08:41:00;2.13;;;1.75;;
45650;SDS011;31365;48.858;8.530;2023-06-04T08:43:39;2.70;;;2.00;;
45650;SDS011;31365;48.858;8.530;2023-06-04T08:46:10;2.42;;;2.22;;
45650;SDS011;31365;48.858;8.530;2023-06-04T08:48:42;3.75;;;2.05;;
45650;SDS011;31365;48.858;8.530;2023-06-04T08:51:11;4.03;;;2.42;;
45650;SDS011;31365;48.858;8.530;2023-06-04T08:53:43;3.58;;;2.15;;
45650;SDS011;31365;48.858;8.530;2023-06-04T08:56:14;2.47;;;2.08;;
45650;SDS011;31365;48.858;8.530;2023-06-04T08:58:43;3.95;;;2.60;;
45650;SDS011;31365;48.858;8.530;2023-06-04T09:01:17;2.55;;;2.15;;
45650;SDS011;31365;48.858;8.530;2023-06-04T09:03:46;3.28;;;1.98;;
45650;SDS011;31365;48.858;8.530;2023-06-04T09:06:14;3.80;;;2.60;;
45650;SDS011;31365;48.858;8.530;2023-06-04T09:08:44;2.88;;;2.13;;
45650;SDS011;31365;48.858;8.530;2023-06-04T09:11:24;3.67;;;2.33;;
45650;SDS011;31365;48.858;8.530;2023-06-04T09:14:03;4.32;;;2.20;;
45650;SDS011;31365;48.858;8.530;2023-06-04T09:16:42;5.55;;;2.33;;
45650;SDS011;31365;48.858;8.530;2023-06-04T09:19:13;5.20;;;2.08;;
45650;SDS011;31365;48.858;8.530;2023-06-04T09:21:47;3.83;;;2.17;;
45650;SDS011;31365;48.858;8.530;2023-06-04T09:24:23;4.70;;;2.05;;
45650;SDS011;31365;48.858;8.530;2023-06-04T09:26:53;2.97;;;2.08;;
45650;SDS011;31365;48.858;8.530;2023-06-04T09:29:22;3.53;;;2.22;;
45650;SDS011;31365;48.858;8.530;2023-06-04T09:31:57;2.50;;;2.05;;
45650;SDS011;31365;48.858;8.530;2023-06-04T09:34:29;4.15;;;2.25;;
45650;SDS011;31365;48.858;8.530;2023-06-04T09:36:59;6.35;;;2.47;;
45650;SDS011;31365;48.858;8.530;2023-06-04T09:39:30;2.50;;;1.85;;
45650;SDS011;31365;48.858;8.530;2023-06-04T09:42:20;3.05;;;2.10;;
45650;SDS011;31365;48.858;8.530;2023-06-04T09:44:49;2.10;;;1.90;;
45650;SDS011;31365;48.858;8.530;2023-06-04T09:47:18;2.47;;;2.20;;
45650;SDS011;31365;48.858;8.530;2023-06-04T09:49:48;3.53;;;1.95;;
45650;SDS011;31365;48.858;8.530;2023-06-04T09:52:19;5.03;;;2.50;;
45650;SDS011;31365;48.858;8.530;2023-06-04T09:54:50;3.83;;;2.33;;
45650;SDS011;31365;48.858;8.530;2023-06-04T09:57:18;4.57;;;2.55;;
45650;SDS011;31365;48.858;8.530;2023-06-04T09:59:49;2.00;;;1.90;;
45650;SDS011;31365;48.858;8.530;2023-06-04T10:02:18;4.22;;;2.10;;
45650;SDS011;31365;48.858;8.530;2023-06-04T10:04:52;5.13;;;2.13;;
45650;SDS011;31365;48.858;8.530;2023-06-04T10:07:24;3.25;;;2.13;;
45650;SDS011;31365;48.858;8.530;2023-06-04T10:09:55;5.50;;;2.38;;
45650;SDS011;31365;48.858;8.530;2023-06-04T10:12:27;2.47;;;2.10;;
45650;SDS011;31365;48.858;8.530;2023-06-04T10:15:02;2.88;;;2.20;;
45650;SDS011;31365;48.858;8.530;2023-06-04T10:17:39;3.58;;;2.30;;
45650;SDS011;31365;48.858;8.530;2023-06-04T10:20:08;4.10;;;2.38;;
45650;SDS011;31365;48.858;8.530;2023-06-04T10:22:39;3.85;;;2.28;;
45650;SDS011;31365;48.858;8.530;2023-06-04T10:25:10;3.63;;;2.13;;
45650;SDS011;31365;48.858;8.530;2023-06-04T10:27:39;2.45;;;2.22;;
45650;SDS011;31365;48.858;8.530;2023-06-04T10:30:08;3.00;;;2.38;;
45650;SDS011;31365;48.858;8.530;2023-06-04T10:32:38;3.17;;;2.60;;
45650;SDS011;31365;48.858;8.530;2023-06-04T10:35:09;4.70;;;2.53;;
45650;SDS011;31365;48.858;8.530;2023-06-04T10:37:38;3.47;;;2.60;;
45650;SDS011;31365;48.858;8.530;2023-06-04T10:40:06;3.22;;;2.33;;
45650;SDS011;31365;48.858;8.530;2023-06-04T10:42:41;3.65;;;2.63;;
45650;SDS011;31365;48.858;8.530;2023-06-04T10:45:11;3.58;;;2.83;;
45650;SDS011;31365;48.858;8.530;2023-06-04T10:47:40;4.20;;;2.58;;
45650;SDS011;31365;48.858;8.530;2023-06-04T10:50:11;2.60;;;2.40;;
45650;SDS011;31365;48.858;8.530;2023-06-04T10:52:50;5.15;;;2.65;;
45650;SDS011;31365;48.858;8.530;2023-06-04T10:55:21;3.92;;;2.50;;
45650;SDS011;31365;48.858;8.530;2023-06-04T10:57:54;3.00;;;2.40;;
45650;SDS011;31365;48.858;8.530;2023-06-04T11:00:34;3.15;;;2.35;;
45650;SDS011;31365;48.858;8.530;2023-06-04T11:03:04;3.65;;;2.50;;
45650;SDS011;31365;48.858;8.530;2023-06-04T11:05:35;4.57;;;2.85;;
45650;SDS011;31365;48.858;8.530;2023-06-04T11:08:05;3.90;;;2.72;;
45650;SDS011;31365;48.858;8.530;2023-06-04T11:10:35;3.83;;;2.80;;
45650;SDS011;31365;48.858;8.530;2023-06-04T11:13:07;4.43;;;2.30;;
45650;SDS011;31365;48.858;8.530;2023-06-04T11:15:39;3.90;;;2.35;;
45650;SDS011;31365;48.858;8.530;2023-06-04T11:18:13;3.03;;;2.70;;
45650;SDS011;31365;48.858;8.530;2023-06-04T11:20:43;4.60;;;2.58;;
45650;SDS011;31365;48.858;8.530;2023-06-04T11:23:13;5.10;;;2.53;;
45650;SDS011;31365;48.858;8.530;2023-06-04T11:25:44;4.53;;;2.88;;
45650;SDS011;31365;48.858;8.530;2023-06-04T11:28:15;5.47;;;3.00;;
45650;SDS011;31365;48.858;8.530;2023-06-04T11:30:55;6.70;;;3.83;;
45650;SDS011;31365;48.858;8.530;2023-06-04T11:33:26;3.30;;;3.00;;
45650;SDS011;31365;48.858;8.530;2023-06-04T11:35:55;2.85;;;2.30;;
45650;SDS011;31365;48.858;8.530;2023-06-04T11:38:24;2.70;;;2.50;;
45650;SDS011;31365;48.858;8.530;2023-06-04T11:40:57;4.32;;;2.90;;
45650;SDS011;31365;48.858;8.530;2023-06-04T11:43:30;5.05;;;2.47;;
45650;SDS011;31365;48.858;8.530;2023-06-04T11:46:07;3.20;;;2.65;;
45650;SDS011;31365;48.858;8.530;2023-06-04T11:48:37;5.97;;;2.65;;
45650;SDS011;31365;48.858;8.530;2023-06-04T11:51:07;2.78;;;2.58;;
45650;SDS011;31365;48.858;8.530;2023-06-04T11:53:36;2.85;;;2.65;;
45650;SDS011;31365;48.858;8.530;2023-06-04T11:56:06;3.85;;;2.60;;
45650;SDS011;31365;48.858;8.530;2023-06-04T11:58:37;2.63;;;2.42;;
45650;SDS011;31365;48.858;8.530;2023-06-04T12:01:07;3.30;;;2.90;;
45650;SDS011;31365;48.858;8.530;2023-06-04T12:03:37;3.03;;;2.63;;
45650;SDS011;31365;48.858;8.530;2023-06-04T12:06:11;3.08;;;2.72;;
45650;SDS011;31365;48.858;8.530;2023-06-04T12:08:46;6.68;;;2.80;;
45650;SDS011;31365;48.858;8.530;2023-06-04T12:11:27;3.95;;;2.78;;
45650;SDS011;31365;48.858;8.530;2023-06-04T12:14:02;2.67;;;2.42;;
45650;SDS011;31365;48.858;8.530;2023-06-04T12:16:32;2.65;;;2.42;;
45650;SDS011;31365;48.858;8.530;2023-06-04T12:19:05;3.30;;;2.50;;
45650;SDS011;31365;48.858;8.530;2023-06-04T12:21:35;4.43;;;2.50;;
45650;SDS011;31365;48.858;8.530;2023-06-04T12:24:06;3.83;;;2.20;;
45650;SDS011;31365;48.858;8.530;2023-06-04T12:26:37;2.83;;;2.42;;
45650;SDS011;31365;48.858;8.530;2023-06-04T12:29:09;3.05;;;2.63;;
45650;SDS011;31365;48.858;8.530;2023-06-04T12:31:40;2.55;;;2.33;;
45650;SDS011;31365;48.858;8.530;2023-06-04T12:34:10;3.40;;;2.70;;
45650;SDS011;31365;48.858;8.530;2023-06-04T12:36:39;2.60;;;2.40;;
45650;SDS011;31365;48.858;8.530;2023-06-04T12:39:10;3.60;;;2.47;;
45650;SDS011;31365;48.858;8.530;2023-06-04T12:41:38;2.97;;;2.40;;
45650;SDS011;31365;48.858;8.530;2023-06-04T12:44:14;3.25;;;2.40;;
45650;SDS011;31365;48.858;8.530;2023-06-04T12:46:44;4.78;;;2.65;;
45650;SDS011;31365;48.858;8.530;2023-06-04T12:49:13;2.60;;;2.40;;
45650;SDS011;31365;48.858;8.530;2023-06-04T12:51:42;5.43;;;2.50;;
45650;SDS011;31365;48.858;8.530;2023-06-04T12:54:10;4.40;;;2.22;;
45650;SDS011;31365;48.858;8.530;2023-06-04T12:56:41;4.18;;;2.72;;
45650;SDS011;31365;48.858;8.530;2023-06-04T12:59:11;5.47;;;2.53;;
45650;SDS011;31365;48.858;8.530;2023-06-04T13:01:42;4.28;;;2.67;;
45650;SDS011;31365;48.858;8.530;2023-06-04T13:04:11;4.75;;;2.20;;
45650;SDS011;31365;48.858;8.530;2023-06-04T13:06:42;2.70;;;2.50;;
45650;SDS011;31365;48.858;8.530;2023-06-04T13:09:12;2.72;;;2.20;;
45650;SDS011;31365;48.858;8.530;2023-06-04T13:11:42;2.85;;;2.00;;
45650;SDS011;31365;48.858;8.530;2023-06-04T13:14:11;3.97;;;2.10;;
45650;SDS011;31365;48.858;8.530;2023-06-04T13:16:42;2.88;;;2.10;;
45650;SDS011;31365;48.858;8.530;2023-06-04T13:19:12;3.60;;;2.30;;
45650;SDS011;31365;48.858;8.530;2023-06-04T13:21:40;2.65;;;2.40;;
45650;SDS011;31365;48.858;8.530;2023-06-04T13:24:09;3.83;;;2.30;;
45650;SDS011;31365;48.858;8.530;2023-06-04T13:26:39;2.40;;;2.10;;
45650;SDS011;31365;48.858;8.530;2023-06-04T13:29:08;2.95;;;2.05;;
45650;SDS011;31365;48.858;8.530;2023-06-04T13:31:37;4.20;;;2.42;;
45650;SDS011;31365;48.858;8.530;2023-06-04T13:34:09;2.55;;;2.10;;
45650;SDS011;31365;48.858;8.530;2023-06-04T13:36:53;2.40;;;2.05;;
45650;SDS011;31365;48.858;8.530;2023-06-04T13:39:22;2.42;;;2.20;;
45650;SDS011;31365;48.858;8.530;2023-06-04T13:41:51;4.68;;;2.33;;
45650;SDS011;31365;48.858;8.530;2023-06-04T13:44:20;4.70;;;2.03;;
45650;SDS011;31365;48.858;8.530;2023-06-04T13:46:53;4.63;;;2.35;;
45650;SDS011;31365;48.858;8.530;2023-06-04T13:49:24;2.60;;;2.40;;
45650;SDS011;31365;48.858;8.530;2023-06-04T13:51:53;2.75;;;2.00;;
45650;SDS011;31365;48.858;8.530;2023-06-04T13:54:22;2.30;;;2.10;;
45650;SDS011;31365;48.858;8.530;2023-06-04T13:56:51;2.40;;;1.92;;
45650;SDS011;31365;48.858;8.530;2023-06-04T13:59:20;4.18;;;2.22;;
45650;SDS011;31365;48.858;8.530;2023-06-04T14:01:49;2.10;;;1.90;;
45650;SDS011;31365;48.858;8.530;2023-06-04T14:04:18;2.50;;;2.20;;
45650;SDS011;31365;48.858;8.530;2023-06-04T14:06:48;2.67;;;2.47;;
45650;SDS011;31365;48.858;8.530;2023-06-04T14:09:17;2.30;;;2.15;;
45650;SDS011;31365;48.858;8.530;2023-06-04T14:11:47;2.55;;;2.15;;
45650;SDS011;31365;48.858;8.530;2023-06-04T14:14:17;3.25;;;2.47;;
45650;SDS011;31365;48.858;8.530;2023-06-04T14:16:47;2.63;;;2.42;;
45650;SDS011;31365;48.858;8.530;2023-06-04T14:19:39;2.25;;;2.03;;
45650;SDS011;31365;48.858;8.530;2023-06-04T14:22:10;6.63;;;2.50;;
45650;SDS011;31365;48.858;8.530;2023-06-04T14:24:57;3.08;;;2.20;;
45650;SDS011;31365;48.858;8.530;2023-06-04T14:27:27;2.80;;;2.15;;
45650;SDS011;31365;48.858;8.530;2023-06-04T14:29:56;2.15;;;1.95;;
45650;SDS011;31365;48.858;8.530;2023-06-04T14:32:25;2.30;;;2.10;;
45650;SDS011;31365;48.858;8.530;2023-06-04T14:34:54;2.40;;;2.20;;
45650;SDS011;31365;48.858;8.530;2023-06-04T14:37:25;2.00;;;1.85;;
45650;SDS011;31365;48.858;8.530;2023-06-04T14:39:54;3.00;;;2.42;;
45650;SDS011;31365;48.858;8.530;2023-06-04T14:42:23;2.33;;;2.13;;
45650;SDS011;31365;48.858;8.530;2023-06-04T14:45:10;2.75;;;1.92;;
45650;SDS011;31365;48.858;8.530;2023-06-04T14:47:39;2.90;;;2.22;;
45650;SDS011;31365;48.858;8.530;2023-06-04T14:50:10;3.22;;;2.30;;
45650;SDS011;31365;48.858;8.530;2023-06-04T14:52:40;2.33;;;2.13;;
45650;SDS011;31365;48.858;8.530;2023-06-04T14:55:09;2.33;;;2.13;;
45650;SDS011;31365;48.858;8.530;2023-06-04T14:57:38;2.00;;;1.83;;
45650;SDS011;31365;48.858;8.530;2023-06-04T15:00:07;3.25;;;2.40;;
45650;SDS011;31365;48.858;8.530;2023-06-04T15:02:38;2.30;;;2.08;;
45650;SDS011;31365;48.858;8.530;2023-06-04T15:05:07;3.47;;;2.20;;
45650;SDS011;31365;48.858;8.530;2023-06-04T15:07:37;4.18;;;2.10;;